AirNav   Textron
 
 1587 users online  

4TN5 Tommy's Field Airport
Greenville, Tennessee, USA


FAA INFORMATION EFFECTIVE 20 JULY 2017

Location

FAA Identifier: 4TN5
Lat/Long: 36-09-03.0000N / 082-37-57.0000W
36-09.050000N / 082-37.950000W
36.1508333 / -82.6325000
(estimated)
Elevation: 1561 ft. / 476 m (estimated)
Variation: 07W ()
From city: 9 miles E of GREENVILLE, TN
Time zone: UTC -4 (UTC -5 during Standard Time)
Zip code: 37641

Airport Operations

Airport use: Private use. Permission required prior to landing
Activation date: 01/2016
Control tower: no
ARTCC: ATLANTA CENTER
FSS: NASHVILLE FLIGHT SERVICE STATION
Attendance: 
Segmented circle: no

Airport Communications

WX AWOS-3 at GCY (9 nm W): 128.425 (423-639-5081)

Nearby radio navigation aids

VOR radial/distance  VOR name  Freq  Var
SOTr047/29.7SNOWBIRD VORTAC108.8004W
HMVr239/29.8HOLSTON MOUNTAIN VORTAC114.6004W

 
NDB name  Hdg/Dist  Freq  Var  ID
DULANEY093/12.526307WDYQ -.. -.-- --.-
ROGERSVILLE150/22.032904WRVN .-. ...- -.
HEMLOCK272/36.532002WBAR -... .- .-.

Airport Services

Runway Information

Runway 9/27

Dimensions: 500 x 70 ft. / 152 x 21 m
Surface: turf
RUNWAY 9  RUNWAY 27
Traffic pattern: leftleft

Airport Ownership and Management from official FAA records

Ownership: Privately-owned
Owner: TOMMY HENSLEY
156 ANDREW JENNINGS RD
CHUCKY, TN 37641
Phone 423 278 6068

Airport Operational Statistics

Aircraft based on the field: 1
Single engine airplanes: 1
    

Instrument Procedures

There are no published instrument procedures at 4TN5.

Some nearby airports with instrument procedures:

KGCY - Greeneville-Greene County Municipal Airport (9 nm W)
KRVN - Hawkins County Airport (22 nm NW)
KTRI - Tri-Cities Regional Airport (22 nm NE)
0A9 - Elizabethton Municipal Airport (26 nm NE)
KMOR - Moore-Murrell Airport (36 nm W)
 
Loc | Ops | Rwys | IFR | FBO | Links
Com | Nav | Svcs | Stats | Notes


 
Aerial photo
No photo
 
Airport distance calculator
Flying to Tommy's Field Airport? Find the distance to fly.

From to 4TN5

Sunrise and sunset
Times for 27-Jul-2017
 Local
(UTC-4)
 Zulu
(UTC)
Morning civil twilight06:0610:06
Sunrise06:3510:35
Sunset20:3900:39
Evening civil twilight21:0801:08

Current date and time
Zulu (UTC)  27-Jul-2017 15:36:27
Local (UTC-4)  27-Jul-2017 11:36:27
 
METAR
KTRI 
23nm NE 
271516Z 17005KT 10SM FEW011 SCT025 OVC037 26/22 A3009 RMK AO2 T02610222
K0A9 
26nm NE 
271515Z AUTO 00000KT 9SM BKN029 OVC037 24/22 A3010 RMK AO2 PWINO
7A8 
33nm E 
SuperAWOS
271455Z AUTO 00000KT 10SM A3021
KMOR 
36nm W 
271515Z AUTO 28011G21KT 240V310 10SM BKN022 BKN028 28/22 A3007 RMK A01
K0VG 
41nm NW 
271510Z AUTO 26007KT 10SM SCT020 SCT028 28/22 A3008 RMK AO2
KVJI 
43nm NE 
271515Z AUTO 24008KT 10SM OVC016 25/21 A3011 RMK AO2 LTG DSNT NW T02510214
KAVL 
43nm S 
271454Z VRB03KT 10SM FEW090 26/22 A3014 RMK AO2 SLP175 T02610222 58008
TAF
KTRI 
23nm NE 
271120Z 2712/2812 VRB05KT P6SM VCSH SCT040 BKN120 TEMPO 2712/2714 BKN040 FM271800 26008KT P6SM VCTS SCT050CB BKN080 FM280100 00000KT P6SM SCT050 BKN100 FM280600 00000KT P6SM SCT030 BKN050
NOTAMs
Click for the latest NOTAMs
NOTAMs are issued by the DoD/FAA and will open in a separate window not controlled by AirNav.

 

 
 

Would you like to see your business listed on this page?

 If your business provides an interesting product or service to pilots, flight crews, aircraft, or users of the Tommy's Field Airport, you should consider listing it here.  To start the listing process, click on the button below
 
Add a business
 

Other Pages about Tommy's Field Airport

Update a link
 
Copyright © AirNav, LLC. All rights reserved. Privacy Policy  Contact